AAL2031 KDCA-KBOS
Flight info
| Callsign | AAL2031 |
|---|---|
| Flight time | 1h 26m |
| Altitude | 39000 |
| Route | SOOKI6 SWANN BROSS Q419 JFK ROBUC3 |
| Aircraft | B738/M-SDE2E3FGHIRWXY/LB1 |
Departure
| Time | 2026-05-06 23:42 |
|---|---|
| Airport | Ronald Reagan Washington National Airport (KDCA) |
Arrival
| Time | 2026-05-07 01:08 |
|---|---|
| Airport | Boston Logan International Airport (KBOS) |
| Time | Latitude | Longitude | Altitude | Speed | Heading |
|---|---|---|---|---|---|
| 2026-05-06 23:03 | 38.85359 | -77.04150 | 24 ft | 0 kts | 315° |
| 2026-05-06 23:32 | 38.85348 | -77.04136 | 27 ft | 4 kts | 326° |
| 2026-05-06 23:32 | 38.85325 | -77.04126 | 29 ft | 4 kts | 15° |
| 2026-05-06 23:33 | 38.85308 | -77.04143 | 27 ft | 3 kts | 70° |
| 2026-05-06 23:33 | 38.85307 | -77.04146 | 27 ft | 0 kts | 71° |
| 2026-05-06 23:36 | 38.85309 | -77.04136 | 26 ft | 4 kts | 72° |
| 2026-05-06 23:36 | 38.85324 | -77.04079 | 25 ft | 9 kts | 72° |
| 2026-05-06 23:36 | 38.85341 | -77.03974 | 22 ft | 12 kts | 84° |
| 2026-05-06 23:36 | 38.85389 | -77.03939 | 23 ft | 9 kts | 353° |
| 2026-05-06 23:37 | 38.85448 | -77.03946 | 24 ft | 9 kts | 355° |
| 2026-05-06 23:37 | 38.85512 | -77.03952 | 26 ft | 10 kts | 356° |
| 2026-05-06 23:37 | 38.85592 | -77.03960 | 29 ft | 9 kts | 355° |
| 2026-05-06 23:37 | 38.85625 | -77.03964 | 27 ft | 5 kts | 355° |
| 2026-05-06 23:38 | 38.85704 | -77.03973 | 27 ft | 18 kts | 356° |
| 2026-05-06 23:38 | 38.85845 | -77.03986 | 26 ft | 22 kts | 355° |
| 2026-05-06 23:38 | 38.85937 | -77.03992 | 27 ft | 9 kts | 6° |
| 2026-05-06 23:38 | 38.86002 | -77.03987 | 27 ft | 5 kts | 353° |
| 2026-05-06 23:39 | 38.86018 | -77.03987 | 27 ft | 0 kts | 4° |
| 2026-05-06 23:39 | 38.86029 | -77.03983 | 25 ft | 6 kts | 17° |
| 2026-05-06 23:40 | 38.86086 | -77.03927 | 26 ft | 9 kts | 63° |
| 2026-05-06 23:40 | 38.86062 | -77.03867 | 23 ft | 9 kts | 166° |
| 2026-05-06 23:40 | 38.86030 | -77.03864 | 24 ft | 0 kts | 175° |
| 2026-05-06 23:41 | 38.85961 | -77.03857 | 25 ft | 34 kts | 175° |
| 2026-05-06 23:41 | 38.85456 | -77.03806 | 27 ft | 109 kts | 175° |
| 2026-05-06 23:42 | 38.84509 | -77.03714 | 131 ft | 158 kts | 175° |
| 2026-05-06 23:42 | 38.83423 | -77.03583 | 981 ft | 152 kts | 173° |
| 2026-05-06 23:42 | 38.82330 | -77.03341 | 1658 ft | 169 kts | 174° |
| 2026-05-06 23:42 | 38.81051 | -77.03052 | 2056 ft | 202 kts | 176° |
| 2026-05-06 23:43 | 38.79581 | -77.02738 | 2336 ft | 227 kts | 175° |
| 2026-05-06 23:43 | 38.77984 | -77.02392 | 2931 ft | 239 kts | 175° |
| 2026-05-06 23:43 | 38.76371 | -77.01672 | 3636 ft | 260 kts | 152° |
| 2026-05-06 23:43 | 38.75466 | -77.00624 | 4142 ft | 273 kts | 129° |
| 2026-05-06 23:44 | 38.74742 | -76.98280 | 4807 ft | 295 kts | 94° |
| 2026-05-06 23:44 | 38.74792 | -76.95634 | 5674 ft | 300 kts | 87° |
| 2026-05-06 23:44 | 38.75042 | -76.92944 | 6436 ft | 308 kts | 69° |
| 2026-05-06 23:44 | 38.76209 | -76.90699 | 7228 ft | 303 kts | 34° |
| 2026-05-06 23:45 | 38.78006 | -76.89357 | 8083 ft | 301 kts | 22° |
| 2026-05-06 23:45 | 38.79864 | -76.88035 | 8834 ft | 311 kts | 25° |
| 2026-05-06 23:45 | 38.81748 | -76.86606 | 9628 ft | 318 kts | 26° |
| 2026-05-06 23:45 | 38.83666 | -76.85122 | 10314 ft | 327 kts | 26° |
| 2026-05-06 23:46 | 38.85677 | -76.83563 | 10601 ft | 351 kts | 27° |
| 2026-05-06 23:46 | 38.87737 | -76.81711 | 11063 ft | 368 kts | 36° |
| 2026-05-06 23:46 | 38.89660 | -76.79501 | 11825 ft | 373 kts | 40° |
| 2026-05-06 23:46 | 38.91529 | -76.77227 | 12638 ft | 376 kts | 40° |
| 2026-05-06 23:47 | 38.93454 | -76.74895 | 13438 ft | 381 kts | 39° |
| 2026-05-06 23:47 | 38.95410 | -76.72569 | 14138 ft | 385 kts | 38° |
| 2026-05-06 23:47 | 38.97402 | -76.70242 | 14848 ft | 389 kts | 37° |
| 2026-05-06 23:47 | 38.99425 | -76.67895 | 15548 ft | 393 kts | 37° |
| 2026-05-06 23:48 | 39.01463 | -76.65526 | 16236 ft | 397 kts | 37° |
| 2026-05-06 23:48 | 39.03467 | -76.63029 | 16946 ft | 404 kts | 39° |
| 2026-05-06 23:48 | 39.05463 | -76.60435 | 17501 ft | 412 kts | 39° |
| 2026-05-06 23:48 | 39.07494 | -76.57801 | 18094 ft | 416 kts | 38° |
| 2026-05-06 23:49 | 39.09553 | -76.55154 | 18692 ft | 420 kts | 38° |
| 2026-05-06 23:49 | 39.11386 | -76.52150 | 19196 ft | 438 kts | 57° |
| 2026-05-06 23:49 | 39.12406 | -76.48401 | 19734 ft | 450 kts | 78° |
| 2026-05-06 23:49 | 39.12863 | -76.44389 | 20313 ft | 455 kts | 81° |
| 2026-05-06 23:50 | 39.13259 | -76.40317 | 20774 ft | 462 kts | 82° |
| 2026-05-06 23:50 | 39.14091 | -76.32039 | 21715 ft | 474 kts | 81° |
| 2026-05-06 23:50 | 39.14552 | -76.27816 | 22204 ft | 479 kts | 80° |
| 2026-05-06 23:51 | 39.15026 | -76.23543 | 22673 ft | 484 kts | 80° |
| 2026-05-06 23:51 | 39.15517 | -76.19218 | 23134 ft | 490 kts | 80° |
| 2026-05-06 23:51 | 39.16026 | -76.14839 | 23513 ft | 497 kts | 79° |
| 2026-05-06 23:51 | 39.16542 | -76.10426 | 23912 ft | 499 kts | 79° |
| 2026-05-06 23:52 | 39.17057 | -76.05988 | 24396 ft | 500 kts | 79° |
| 2026-05-06 23:52 | 39.17570 | -76.01539 | 24808 ft | 504 kts | 80° |
| 2026-05-06 23:52 | 39.18084 | -75.97054 | 25224 ft | 508 kts | 79° |
| 2026-05-06 23:52 | 39.18785 | -75.92569 | 25487 ft | 512 kts | 68° |
| 2026-05-06 23:53 | 39.20206 | -75.88400 | 25861 ft | 505 kts | 53° |
| 2026-05-06 23:53 | 39.22167 | -75.84778 | 26315 ft | 494 kts | 40° |
| 2026-05-06 23:53 | 39.24608 | -75.81753 | 26717 ft | 482 kts | 30° |
| 2026-05-06 23:53 | 39.27208 | -75.79000 | 27096 ft | 485 kts | 29° |
| 2026-05-06 23:54 | 39.29834 | -75.76242 | 27441 ft | 488 kts | 30° |
| 2026-05-06 23:54 | 39.32460 | -75.73444 | 27821 ft | 491 kts | 30° |
| 2026-05-06 23:54 | 39.35088 | -75.70591 | 28181 ft | 495 kts | 31° |
| 2026-05-06 23:54 | 39.37721 | -75.67697 | 28576 ft | 499 kts | 31° |
| 2026-05-06 23:55 | 39.40374 | -75.64768 | 28832 ft | 503 kts | 31° |
| 2026-05-06 23:55 | 39.43047 | -75.61819 | 28859 ft | 507 kts | 31° |
| 2026-05-06 23:55 | 39.45733 | -75.58859 | 28996 ft | 510 kts | 31° |
| 2026-05-06 23:55 | 39.48442 | -75.55882 | 29425 ft | 510 kts | 31° |
| 2026-05-06 23:56 | 39.51144 | -75.52911 | 29892 ft | 510 kts | 31° |
| 2026-05-06 23:56 | 39.53851 | -75.49934 | 30194 ft | 512 kts | 30° |
| 2026-05-06 23:56 | 39.56575 | -75.46933 | 30482 ft | 515 kts | 30° |
| 2026-05-06 23:56 | 39.59318 | -75.43910 | 30675 ft | 519 kts | 30° |
| 2026-05-06 23:57 | 39.62043 | -75.40918 | 30914 ft | 518 kts | 28° |
| 2026-05-06 23:57 | 39.65057 | -75.38453 | 31225 ft | 493 kts | 11° |
| 2026-05-06 23:57 | 39.68197 | -75.37192 | 31521 ft | 464 kts | 355° |
| 2026-05-06 23:57 | 39.71308 | -75.37093 | 31813 ft | 433 kts | 338° |
| 2026-05-06 23:58 | 39.74088 | -75.38112 | 32178 ft | 400 kts | 321° |
| 2026-05-06 23:58 | 39.76379 | -75.39967 | 32672 ft | 378 kts | 311° |
| 2026-05-06 23:58 | 39.78431 | -75.42074 | 32820 ft | 376 kts | 309° |
| 2026-05-06 23:58 | 39.80433 | -75.44256 | 32859 ft | 373 kts | 309° |
| 2026-05-06 23:59 | 39.84922 | -75.47759 | 32882 ft | 398 kts | 329° |
| 2026-05-06 23:59 | 39.87673 | -75.48590 | 32870 ft | 410 kts | 335° |
| 2026-05-06 23:59 | 39.90518 | -75.49013 | 32948 ft | 425 kts | 342° |
| 2026-05-07 00:00 | 39.93545 | -75.48918 | 33186 ft | 446 kts | 351° |
| 2026-05-07 00:00 | 39.96662 | -75.48055 | 33546 ft | 470 kts | 4° |
| 2026-05-07 00:00 | 39.99710 | -75.46262 | 34039 ft | 494 kts | 17° |
| 2026-05-07 00:00 | 40.02538 | -75.43540 | 34408 ft | 515 kts | 30° |
| 2026-05-07 00:01 | 40.04985 | -75.40018 | 34848 ft | 532 kts | 45° |
| 2026-05-07 00:01 | 40.06916 | -75.35805 | 34841 ft | 549 kts | 54° |
| 2026-05-07 00:01 | 40.10168 | -75.26769 | 34854 ft | 547 kts | 58° |
| 2026-05-07 00:02 | 40.13244 | -75.17752 | 34861 ft | 542 kts | 58° |
| 2026-05-07 00:02 | 40.16402 | -75.08853 | 34900 ft | 542 kts | 57° |
| 2026-05-07 00:03 | 40.19643 | -74.99944 | 34837 ft | 542 kts | 57° |
| 2026-05-07 00:03 | 40.22887 | -74.91038 | 34845 ft | 542 kts | 57° |
| 2026-05-07 00:04 | 40.26118 | -74.82112 | 34841 ft | 543 kts | 57° |
| 2026-05-07 00:04 | 40.29505 | -74.73325 | 34841 ft | 537 kts | 52° |
| 2026-05-07 00:05 | 40.31384 | -74.69074 | 34642 ft | 540 kts | 50° |
| 2026-05-07 00:05 | 40.33310 | -74.64864 | 34452 ft | 538 kts | 50° |
| 2026-05-07 00:05 | 40.35231 | -74.60676 | 34221 ft | 536 kts | 50° |
| 2026-05-07 00:05 | 40.37148 | -74.56456 | 33990 ft | 537 kts | 51° |
| 2026-05-07 00:06 | 40.39041 | -74.52232 | 33764 ft | 538 kts | 51° |
| 2026-05-07 00:06 | 40.40894 | -74.48048 | 33493 ft | 539 kts | 52° |
| 2026-05-07 00:06 | 40.42777 | -74.43760 | 33243 ft | 539 kts | 52° |
| 2026-05-07 00:06 | 40.44648 | -74.39480 | 32986 ft | 540 kts | 52° |
| 2026-05-07 00:07 | 40.46516 | -74.35196 | 32685 ft | 540 kts | 52° |
| 2026-05-07 00:07 | 40.48379 | -74.30919 | 32440 ft | 539 kts | 53° |
| 2026-05-07 00:07 | 40.50216 | -74.26698 | 32245 ft | 537 kts | 53° |
| 2026-05-07 00:07 | 40.52092 | -74.22384 | 31986 ft | 535 kts | 53° |
| 2026-05-07 00:08 | 40.53905 | -74.18211 | 31736 ft | 532 kts | 53° |
| 2026-05-07 00:08 | 40.55734 | -74.13997 | 31485 ft | 528 kts | 53° |
| 2026-05-07 00:08 | 40.57548 | -74.09813 | 31234 ft | 525 kts | 53° |
| 2026-05-07 00:08 | 40.59349 | -74.05656 | 31006 ft | 521 kts | 53° |
| 2026-05-07 00:09 | 40.61139 | -74.01519 | 30762 ft | 518 kts | 53° |
| 2026-05-07 00:09 | 40.62916 | -73.97409 | 30501 ft | 515 kts | 54° |
| 2026-05-07 00:09 | 40.64683 | -73.93314 | 30308 ft | 512 kts | 54° |
| 2026-05-07 00:09 | 40.66438 | -73.89239 | 30067 ft | 510 kts | 54° |
| 2026-05-07 00:10 | 40.68184 | -73.85182 | 29813 ft | 508 kts | 54° |
| 2026-05-07 00:10 | 40.69918 | -73.81147 | 29535 ft | 506 kts | 54° |
| 2026-05-07 00:10 | 40.71631 | -73.77156 | 29273 ft | 504 kts | 54° |
| 2026-05-07 00:10 | 40.73351 | -73.73140 | 28969 ft | 501 kts | 54° |
| 2026-05-07 00:11 | 40.75060 | -73.69149 | 28717 ft | 501 kts | 54° |
| 2026-05-07 00:11 | 40.76778 | -73.65132 | 28402 ft | 501 kts | 54° |
| 2026-05-07 00:11 | 40.78509 | -73.61085 | 28154 ft | 513 kts | 55° |
| 2026-05-07 00:11 | 40.80291 | -73.56916 | 27995 ft | 529 kts | 55° |
| 2026-05-07 00:12 | 40.82118 | -73.52628 | 27655 ft | 545 kts | 55° |
| 2026-05-07 00:12 | 40.84000 | -73.48200 | 27202 ft | 559 kts | 56° |
| 2026-05-07 00:12 | 40.85949 | -73.43771 | 26709 ft | 552 kts | 50° |
| 2026-05-07 00:12 | 40.88297 | -73.39847 | 26502 ft | 541 kts | 41° |
| 2026-05-07 00:13 | 40.90837 | -73.36168 | 26218 ft | 543 kts | 39° |
| 2026-05-07 00:13 | 40.93447 | -73.32523 | 25937 ft | 545 kts | 39° |
| 2026-05-07 00:13 | 40.96046 | -73.28876 | 25627 ft | 546 kts | 40° |
| 2026-05-07 00:13 | 40.98607 | -73.25202 | 25381 ft | 539 kts | 40° |
| 2026-05-07 00:14 | 41.01090 | -73.21562 | 25103 ft | 538 kts | 41° |
| 2026-05-07 00:14 | 41.03575 | -73.17871 | 24840 ft | 536 kts | 41° |
| 2026-05-07 00:14 | 41.06044 | -73.14182 | 24572 ft | 533 kts | 41° |
| 2026-05-07 00:14 | 41.08463 | -73.10554 | 24271 ft | 520 kts | 41° |
| 2026-05-07 00:15 | 41.10867 | -73.06959 | 24033 ft | 524 kts | 41° |
| 2026-05-07 00:15 | 41.13297 | -73.03339 | 23755 ft | 528 kts | 41° |
| 2026-05-07 00:15 | 41.15734 | -72.99699 | 23502 ft | 526 kts | 41° |
| 2026-05-07 00:15 | 41.18144 | -72.96088 | 23165 ft | 518 kts | 41° |
| 2026-05-07 00:16 | 41.20476 | -72.92447 | 22865 ft | 522 kts | 47° |
| 2026-05-07 00:16 | 41.22467 | -72.88358 | 22859 ft | 530 kts | 58° |
| 2026-05-07 00:16 | 41.24083 | -72.83941 | 22861 ft | 531 kts | 61° |
| 2026-05-07 00:16 | 41.25599 | -72.79562 | 22833 ft | 513 kts | 62° |
| 2026-05-07 00:17 | 41.27049 | -72.75316 | 22834 ft | 495 kts | 61° |
| 2026-05-07 00:17 | 41.28456 | -72.71224 | 22827 ft | 477 kts | 61° |
| 2026-05-07 00:17 | 41.29825 | -72.67290 | 22880 ft | 461 kts | 61° |
| 2026-05-07 00:17 | 41.31161 | -72.63498 | 22842 ft | 447 kts | 60° |
| 2026-05-07 00:18 | 41.32470 | -72.59809 | 22801 ft | 433 kts | 60° |
| 2026-05-07 00:18 | 41.33740 | -72.56242 | 22815 ft | 419 kts | 60° |
| 2026-05-07 00:18 | 41.34952 | -72.52832 | 22829 ft | 406 kts | 59° |
| 2026-05-07 00:18 | 41.36139 | -72.49492 | 22828 ft | 393 kts | 59° |
| 2026-05-07 00:19 | 41.37287 | -72.46254 | 22828 ft | 380 kts | 59° |
| 2026-05-07 00:19 | 41.38399 | -72.43116 | 22834 ft | 371 kts | 59° |
| 2026-05-07 00:19 | 41.39499 | -72.40015 | 22843 ft | 370 kts | 59° |
| 2026-05-07 00:19 | 41.40606 | -72.36897 | 22856 ft | 373 kts | 59° |
| 2026-05-07 00:20 | 41.41714 | -72.33770 | 22859 ft | 374 kts | 59° |
| 2026-05-07 00:20 | 41.42826 | -72.30622 | 22858 ft | 376 kts | 59° |
| 2026-05-07 00:20 | 41.43941 | -72.27460 | 22863 ft | 378 kts | 59° |
| 2026-05-07 00:20 | 41.45060 | -72.24280 | 22833 ft | 379 kts | 59° |
| 2026-05-07 00:21 | 41.46178 | -72.21095 | 22842 ft | 379 kts | 59° |
| 2026-05-07 00:21 | 41.47295 | -72.17909 | 22835 ft | 377 kts | 59° |
| 2026-05-07 00:21 | 41.48399 | -72.14752 | 22630 ft | 375 kts | 60° |
| 2026-05-07 00:21 | 41.49501 | -72.11601 | 22282 ft | 375 kts | 60° |
| 2026-05-07 00:22 | 41.50606 | -72.08442 | 21861 ft | 378 kts | 61° |
| 2026-05-07 00:22 | 41.51724 | -72.05246 | 21326 ft | 384 kts | 62° |
| 2026-05-07 00:22 | 41.52882 | -72.01936 | 20313 ft | 405 kts | 63° |
| 2026-05-07 00:22 | 41.54104 | -71.98437 | 19419 ft | 422 kts | 64° |
| 2026-05-07 00:23 | 41.55326 | -71.94921 | 19022 ft | 421 kts | 64° |
| 2026-05-07 00:23 | 41.56547 | -71.91398 | 18768 ft | 415 kts | 65° |
| 2026-05-07 00:23 | 41.57749 | -71.87927 | 18480 ft | 410 kts | 65° |
| 2026-05-07 00:23 | 41.58945 | -71.84471 | 18117 ft | 408 kts | 66° |
| 2026-05-07 00:24 | 41.60132 | -71.81040 | 17714 ft | 405 kts | 66° |
| 2026-05-07 00:24 | 41.61308 | -71.77636 | 17325 ft | 403 kts | 66° |
| 2026-05-07 00:24 | 41.62478 | -71.74248 | 16925 ft | 400 kts | 66° |
| 2026-05-07 00:24 | 41.63644 | -71.70867 | 16553 ft | 398 kts | 66° |
| 2026-05-07 00:25 | 41.64792 | -71.67534 | 16182 ft | 395 kts | 66° |
| 2026-05-07 00:25 | 41.65934 | -71.64217 | 15789 ft | 393 kts | 65° |
| 2026-05-07 00:25 | 41.67069 | -71.60913 | 15428 ft | 391 kts | 65° |
| 2026-05-07 00:25 | 41.68190 | -71.57617 | 15135 ft | 386 kts | 67° |
| 2026-05-07 00:26 | 41.69173 | -71.54348 | 14873 ft | 381 kts | 70° |
| 2026-05-07 00:26 | 41.70122 | -71.51000 | 14533 ft | 378 kts | 70° |
| 2026-05-07 00:26 | 41.71047 | -71.47752 | 14098 ft | 380 kts | 70° |
| 2026-05-07 00:26 | 41.72013 | -71.44408 | 13580 ft | 386 kts | 69° |
| 2026-05-07 00:27 | 41.73104 | -71.41134 | 13420 ft | 391 kts | 61° |
| 2026-05-07 00:27 | 41.74506 | -71.37893 | 13233 ft | 409 kts | 58° |
| 2026-05-07 00:27 | 41.75993 | -71.34613 | 13000 ft | 415 kts | 58° |
| 2026-05-07 00:27 | 41.77457 | -71.31292 | 12762 ft | 413 kts | 59° |
| 2026-05-07 00:28 | 41.78886 | -71.27969 | 12528 ft | 409 kts | 59° |
| 2026-05-07 00:28 | 41.80287 | -71.24674 | 12305 ft | 401 kts | 60° |
| 2026-05-07 00:28 | 41.81647 | -71.21468 | 12097 ft | 390 kts | 59° |
| 2026-05-07 00:28 | 41.82958 | -71.18380 | 11875 ft | 373 kts | 59° |
| 2026-05-07 00:29 | 41.84220 | -71.15408 | 11682 ft | 360 kts | 59° |
| 2026-05-07 00:29 | 41.85423 | -71.12575 | 11532 ft | 347 kts | 59° |
| 2026-05-07 00:30 | 41.89008 | -71.04267 | 11002 ft | 341 kts | 59° |
| 2026-05-07 00:30 | 41.90198 | -71.01516 | 10830 ft | 341 kts | 59° |
| 2026-05-07 00:30 | 41.91387 | -70.98766 | 10648 ft | 340 kts | 59° |
| 2026-05-07 00:30 | 41.92574 | -70.96012 | 10471 ft | 340 kts | 59° |
| 2026-05-07 00:31 | 41.93758 | -70.93262 | 10287 ft | 340 kts | 59° |
| 2026-05-07 00:31 | 41.94933 | -70.90530 | 10104 ft | 335 kts | 59° |
| 2026-05-07 00:31 | 41.96087 | -70.87844 | 9893 ft | 329 kts | 59° |
| 2026-05-07 00:31 | 41.97221 | -70.85201 | 9715 ft | 325 kts | 59° |
| 2026-05-07 00:32 | 41.97969 | -70.83459 | 9601 ft | 324 kts | 59° |
| 2026-05-07 00:32 | 41.99460 | -70.79980 | 9390 ft | 324 kts | 59° |
| 2026-05-07 00:32 | 42.00585 | -70.77353 | 9229 ft | 323 kts | 58° |
| 2026-05-07 00:32 | 42.01833 | -70.74858 | 9019 ft | 320 kts | 47° |
| 2026-05-07 00:33 | 42.02812 | -70.73373 | 8912 ft | 318 kts | 44° |
| 2026-05-07 00:33 | 42.04328 | -70.71224 | 8751 ft | 315 kts | 43° |
| 2026-05-07 00:33 | 42.05827 | -70.69081 | 8579 ft | 314 kts | 44° |
| 2026-05-07 00:33 | 42.07298 | -70.66921 | 8407 ft | 312 kts | 45° |
| 2026-05-07 00:34 | 42.08746 | -70.64762 | 8247 ft | 310 kts | 45° |
| 2026-05-07 00:34 | 42.10206 | -70.62648 | 8076 ft | 306 kts | 37° |
| 2026-05-07 00:34 | 42.12013 | -70.61268 | 7833 ft | 295 kts | 10° |
| 2026-05-07 00:34 | 42.13993 | -70.60638 | 7604 ft | 292 kts | 5° |
| 2026-05-07 00:35 | 42.15966 | -70.60114 | 7310 ft | 294 kts | 4° |
| 2026-05-07 00:35 | 42.17969 | -70.59585 | 7052 ft | 291 kts | 4° |
| 2026-05-07 00:35 | 42.19957 | -70.59051 | 6772 ft | 290 kts | 5° |
| 2026-05-07 00:35 | 42.21925 | -70.58515 | 6490 ft | 288 kts | 5° |
| 2026-05-07 00:36 | 42.23886 | -70.57974 | 6211 ft | 287 kts | 5° |
| 2026-05-07 00:36 | 42.25797 | -70.57439 | 6075 ft | 272 kts | 5° |
| 2026-05-07 00:36 | 42.27579 | -70.56935 | 5948 ft | 252 kts | 5° |
| 2026-05-07 00:36 | 42.29239 | -70.56466 | 5803 ft | 235 kts | 4° |
| 2026-05-07 00:37 | 42.30768 | -70.56035 | 5569 ft | 224 kts | 4° |
| 2026-05-07 00:37 | 42.32297 | -70.55914 | 5118 ft | 209 kts | 336° |
| 2026-05-07 00:37 | 42.33511 | -70.56759 | 5093 ft | 191 kts | 314° |
| 2026-05-07 00:37 | 42.34483 | -70.57931 | 5050 ft | 185 kts | 308° |
| 2026-05-07 00:38 | 42.35398 | -70.59140 | 5017 ft | 181 kts | 307° |
| 2026-05-07 00:38 | 42.36294 | -70.60334 | 5034 ft | 182 kts | 307° |
| 2026-05-07 00:38 | 42.37205 | -70.61549 | 5021 ft | 185 kts | 308° |
| 2026-05-07 00:38 | 42.38119 | -70.62762 | 5007 ft | 184 kts | 308° |
| 2026-05-07 00:39 | 42.39040 | -70.63983 | 5008 ft | 188 kts | 308° |
| 2026-05-07 00:39 | 42.40001 | -70.65260 | 5013 ft | 207 kts | 308° |
| 2026-05-07 00:39 | 42.41134 | -70.66777 | 5029 ft | 245 kts | 309° |
| 2026-05-07 00:39 | 42.42345 | -70.68377 | 5016 ft | 247 kts | 310° |
| 2026-05-07 00:40 | 42.43584 | -70.70003 | 5009 ft | 248 kts | 310° |
| 2026-05-07 00:40 | 42.44820 | -70.71625 | 4998 ft | 246 kts | 310° |
| 2026-05-07 00:40 | 42.46049 | -70.73239 | 4999 ft | 245 kts | 310° |
| 2026-05-07 00:40 | 42.47273 | -70.74852 | 5005 ft | 245 kts | 310° |
| 2026-05-07 00:41 | 42.48498 | -70.76467 | 5001 ft | 245 kts | 310° |
| 2026-05-07 00:41 | 42.49720 | -70.78081 | 5004 ft | 245 kts | 310° |
| 2026-05-07 00:41 | 42.50936 | -70.79687 | 4992 ft | 242 kts | 310° |
| 2026-05-07 00:41 | 42.52278 | -70.81001 | 4979 ft | 242 kts | 333° |
| 2026-05-07 00:42 | 42.53944 | -70.81304 | 4995 ft | 246 kts | 359° |
| 2026-05-07 00:42 | 42.55598 | -70.80747 | 5014 ft | 252 kts | 14° |
| 2026-05-07 00:42 | 42.57321 | -70.79888 | 5031 ft | 274 kts | 15° |
| 2026-05-07 00:42 | 42.59144 | -70.78956 | 5019 ft | 282 kts | 16° |
| 2026-05-07 00:43 | 42.60971 | -70.77985 | 5012 ft | 283 kts | 17° |
| 2026-05-07 00:43 | 42.62817 | -70.77036 | 4985 ft | 282 kts | 15° |
| 2026-05-07 00:43 | 42.64666 | -70.76130 | 4881 ft | 283 kts | 15° |
| 2026-05-07 00:43 | 42.66523 | -70.75227 | 4797 ft | 283 kts | 15° |
| 2026-05-07 00:44 | 42.68370 | -70.74332 | 4755 ft | 279 kts | 14° |
| 2026-05-07 00:44 | 42.70197 | -70.73454 | 4707 ft | 277 kts | 15° |
| 2026-05-07 00:44 | 42.72003 | -70.72569 | 4701 ft | 274 kts | 15° |
| 2026-05-07 00:44 | 42.73809 | -70.71687 | 4706 ft | 278 kts | 14° |
| 2026-05-07 00:45 | 42.75645 | -70.70797 | 4705 ft | 282 kts | 15° |
| 2026-05-07 00:45 | 42.77500 | -70.69901 | 4719 ft | 282 kts | 15° |
| 2026-05-07 00:45 | 42.79341 | -70.69014 | 4718 ft | 279 kts | 15° |
| 2026-05-07 00:45 | 42.81163 | -70.68138 | 4712 ft | 276 kts | 14° |
| 2026-05-07 00:46 | 42.82945 | -70.67279 | 4711 ft | 274 kts | 14° |
| 2026-05-07 00:46 | 42.84758 | -70.66403 | 4706 ft | 272 kts | 14° |
| 2026-05-07 00:46 | 42.86524 | -70.65548 | 4708 ft | 273 kts | 15° |
| 2026-05-07 00:46 | 42.88316 | -70.64683 | 4705 ft | 273 kts | 14° |
| 2026-05-07 00:47 | 42.90110 | -70.63817 | 4691 ft | 274 kts | 14° |
| 2026-05-07 00:47 | 42.91915 | -70.62948 | 4691 ft | 275 kts | 14° |
| 2026-05-07 00:47 | 42.93724 | -70.62075 | 4691 ft | 276 kts | 15° |
| 2026-05-07 00:47 | 42.95540 | -70.61202 | 4705 ft | 277 kts | 15° |
| 2026-05-07 00:48 | 42.97352 | -70.60334 | 4698 ft | 274 kts | 14° |
| 2026-05-07 00:48 | 42.99126 | -70.59483 | 4686 ft | 265 kts | 14° |
| 2026-05-07 00:48 | 43.00840 | -70.58651 | 4679 ft | 260 kts | 14° |
| 2026-05-07 00:48 | 43.02535 | -70.57825 | 4678 ft | 257 kts | 14° |
| 2026-05-07 00:49 | 43.04204 | -70.57008 | 4606 ft | 260 kts | 14° |
| 2026-05-07 00:49 | 43.05933 | -70.56166 | 4354 ft | 266 kts | 14° |
| 2026-05-07 00:49 | 43.07671 | -70.55321 | 4099 ft | 263 kts | 14° |
| 2026-05-07 00:49 | 43.09379 | -70.54487 | 3998 ft | 257 kts | 14° |
| 2026-05-07 00:50 | 43.11070 | -70.53980 | 3953 ft | 239 kts | 348° |
| 2026-05-07 00:50 | 43.12476 | -70.54813 | 3961 ft | 211 kts | 309° |
| 2026-05-07 00:50 | 43.13302 | -70.56409 | 3974 ft | 203 kts | 293° |
| 2026-05-07 00:50 | 43.13737 | -70.58217 | 3972 ft | 199 kts | 275° |
| 2026-05-07 00:51 | 43.13660 | -70.60090 | 3968 ft | 198 kts | 255° |
| 2026-05-07 00:51 | 43.13063 | -70.61784 | 3972 ft | 200 kts | 237° |
| 2026-05-07 00:51 | 43.12066 | -70.63136 | 3963 ft | 205 kts | 218° |
| 2026-05-07 00:51 | 43.10756 | -70.63957 | 3970 ft | 209 kts | 206° |
| 2026-05-07 00:52 | 43.09383 | -70.64647 | 3965 ft | 210 kts | 206° |
| 2026-05-07 00:52 | 43.08030 | -70.65320 | 3971 ft | 210 kts | 206° |
| 2026-05-07 00:52 | 43.06653 | -70.66004 | 3966 ft | 210 kts | 206° |
| 2026-05-07 00:52 | 43.05275 | -70.66688 | 3957 ft | 211 kts | 206° |
| 2026-05-07 00:53 | 43.03896 | -70.67373 | 3969 ft | 211 kts | 205° |
| 2026-05-07 00:53 | 43.02518 | -70.68058 | 3963 ft | 211 kts | 206° |
| 2026-05-07 00:53 | 43.01133 | -70.68746 | 3968 ft | 211 kts | 206° |
| 2026-05-07 00:53 | 42.99747 | -70.69435 | 3966 ft | 212 kts | 205° |
| 2026-05-07 00:54 | 42.98355 | -70.70127 | 3961 ft | 212 kts | 205° |
| 2026-05-07 00:54 | 42.96963 | -70.70818 | 3973 ft | 213 kts | 206° |
| 2026-05-07 00:54 | 42.95573 | -70.71510 | 3966 ft | 213 kts | 206° |
| 2026-05-07 00:54 | 42.94185 | -70.72200 | 3962 ft | 212 kts | 206° |
| 2026-05-07 00:55 | 42.92824 | -70.72873 | 3957 ft | 210 kts | 206° |
| 2026-05-07 00:55 | 42.91444 | -70.73557 | 3961 ft | 207 kts | 206° |
| 2026-05-07 00:55 | 42.90112 | -70.74218 | 3961 ft | 206 kts | 206° |
| 2026-05-07 00:55 | 42.88768 | -70.74884 | 3986 ft | 203 kts | 207° |
| 2026-05-07 00:56 | 42.87475 | -70.75501 | 4000 ft | 190 kts | 208° |
| 2026-05-07 00:56 | 42.86257 | -70.76163 | 3987 ft | 186 kts | 207° |
| 2026-05-07 00:56 | 42.85041 | -70.76761 | 3986 ft | 186 kts | 206° |
| 2026-05-07 00:56 | 42.83812 | -70.77349 | 3989 ft | 188 kts | 206° |
| 2026-05-07 00:57 | 42.82587 | -70.77950 | 3997 ft | 186 kts | 206° |
| 2026-05-07 00:57 | 42.81379 | -70.78549 | 3990 ft | 184 kts | 206° |
| 2026-05-07 00:57 | 42.80179 | -70.79142 | 3986 ft | 183 kts | 206° |
| 2026-05-07 00:57 | 42.78990 | -70.79726 | 3986 ft | 182 kts | 206° |
| 2026-05-07 00:58 | 42.77817 | -70.80308 | 3994 ft | 179 kts | 207° |
| 2026-05-07 00:58 | 42.76655 | -70.80881 | 3995 ft | 176 kts | 207° |
| 2026-05-07 00:58 | 42.75517 | -70.81475 | 3997 ft | 174 kts | 208° |
| 2026-05-07 00:58 | 42.74393 | -70.82079 | 3987 ft | 173 kts | 207° |
| 2026-05-07 00:59 | 42.72195 | -70.83197 | 3990 ft | 163 kts | 207° |
| 2026-05-07 00:59 | 42.71143 | -70.83716 | 3998 ft | 159 kts | 207° |
| 2026-05-07 00:59 | 42.70098 | -70.84229 | 4007 ft | 159 kts | 207° |
| 2026-05-07 01:00 | 42.69054 | -70.84738 | 3992 ft | 160 kts | 207° |
| 2026-05-07 01:00 | 42.68007 | -70.85247 | 3999 ft | 159 kts | 207° |
| 2026-05-07 01:00 | 42.66962 | -70.85753 | 3995 ft | 159 kts | 207° |
| 2026-05-07 01:00 | 42.65898 | -70.86273 | 4035 ft | 177 kts | 207° |
| 2026-05-07 01:01 | 42.64633 | -70.86895 | 4034 ft | 202 kts | 205° |
| 2026-05-07 01:01 | 42.63349 | -70.87507 | 3997 ft | 187 kts | 206° |
| 2026-05-07 01:01 | 42.62183 | -70.88063 | 3979 ft | 169 kts | 206° |
| 2026-05-07 01:01 | 42.61101 | -70.88586 | 3989 ft | 163 kts | 207° |
| 2026-05-07 01:02 | 42.60039 | -70.89102 | 3987 ft | 161 kts | 207° |
| 2026-05-07 01:02 | 42.58984 | -70.89614 | 3986 ft | 160 kts | 207° |
| 2026-05-07 01:02 | 42.57921 | -70.90130 | 3863 ft | 166 kts | 207° |
| 2026-05-07 01:02 | 42.56834 | -70.90657 | 3671 ft | 165 kts | 207° |
| 2026-05-07 01:03 | 42.55785 | -70.91161 | 3479 ft | 154 kts | 208° |
| 2026-05-07 01:03 | 42.54801 | -70.91637 | 3286 ft | 149 kts | 208° |
| 2026-05-07 01:03 | 42.53826 | -70.92110 | 3131 ft | 148 kts | 208° |
| 2026-05-07 01:03 | 42.52872 | -70.92573 | 2958 ft | 147 kts | 208° |
| 2026-05-07 01:04 | 42.51929 | -70.93028 | 2827 ft | 139 kts | 209° |
| 2026-05-07 01:04 | 42.51044 | -70.93455 | 2648 ft | 132 kts | 208° |
| 2026-05-07 01:04 | 42.50190 | -70.93869 | 2527 ft | 130 kts | 210° |
| 2026-05-07 01:04 | 42.49352 | -70.94277 | 2498 ft | 130 kts | 210° |
| 2026-05-07 01:05 | 42.48488 | -70.94698 | 2345 ft | 131 kts | 210° |
| 2026-05-07 01:05 | 42.47640 | -70.95108 | 2163 ft | 127 kts | 208° |
| 2026-05-07 01:05 | 42.46819 | -70.95505 | 2012 ft | 124 kts | 207° |
| 2026-05-07 01:05 | 42.46010 | -70.95897 | 1846 ft | 123 kts | 206° |
| 2026-05-07 01:06 | 42.45188 | -70.96286 | 1650 ft | 126 kts | 204° |
| 2026-05-07 01:06 | 42.44380 | -70.96646 | 1468 ft | 124 kts | 204° |
| 2026-05-07 01:06 | 42.43555 | -70.97048 | 1245 ft | 127 kts | 206° |
| 2026-05-07 01:06 | 42.42733 | -70.97480 | 1099 ft | 129 kts | 202° |
| 2026-05-07 01:07 | 42.41859 | -70.97879 | 932 ft | 132 kts | 204° |
| 2026-05-07 01:07 | 42.40987 | -70.98346 | 756 ft | 132 kts | 202° |
| 2026-05-07 01:07 | 42.40122 | -70.98757 | 533 ft | 132 kts | 200° |
| 2026-05-07 01:07 | 42.39271 | -70.99169 | 410 ft | 128 kts | 201° |
| 2026-05-07 01:08 | 42.38428 | -70.99573 | 242 ft | 128 kts | 201° |
| 2026-05-07 01:08 | 42.37587 | -70.99980 | 90 ft | 128 kts | 201° |
| 2026-05-07 01:08 | 42.36794 | -71.00369 | 27 ft | 108 kts | 198° |
| 2026-05-07 01:08 | 42.36283 | -71.00612 | 27 ft | 47 kts | 199° |
| 2026-05-07 01:09 | 42.36152 | -71.00731 | 23 ft | 14 kts | 252° |
| 2026-05-07 01:09 | 42.36153 | -71.00810 | 24 ft | 2 kts | 285° |
| 2026-05-07 01:09 | 42.36154 | -71.00814 | 27 ft | 0 kts | 287° |
| 2026-05-07 01:10 | 42.36156 | -71.00824 | 26 ft | 4 kts | 290° |
| 2026-05-07 01:10 | 42.36174 | -71.00881 | 28 ft | 9 kts | 293° |
| 2026-05-07 01:10 | 42.36208 | -71.00986 | 28 ft | 15 kts | 293° |
| 2026-05-07 01:11 | 42.36243 | -71.01094 | 27 ft | 1 kts | 295° |
| 2026-05-07 01:11 | 42.36244 | -71.01096 | 27 ft | 1 kts | 295° |
| 2026-05-07 01:11 | 42.36257 | -71.01132 | 29 ft | 8 kts | 297° |
| 2026-05-07 01:11 | 42.36298 | -71.01229 | 27 ft | 14 kts | 301° |
| 2026-05-07 01:12 | 42.36326 | -71.01290 | 27 ft | 3 kts | 303° |
| 2026-05-07 01:12 | 42.36332 | -71.01302 | 25 ft | 0 kts | 302° |
| 2026-05-07 01:12 | 42.36337 | -71.01313 | 25 ft | 5 kts | 301° |
| 2026-05-07 01:13 | 42.36379 | -71.01391 | 23 ft | 10 kts | 326° |
| 2026-05-07 01:13 | 42.36441 | -71.01383 | 25 ft | 9 kts | 11° |
| 2026-05-07 01:13 | 42.36487 | -71.01403 | 26 ft | 2 kts | 330° |
| 2026-05-07 01:13 | 42.36500 | -71.01427 | 23 ft | 3 kts | 297° |
| 2026-05-07 01:14 | 42.36505 | -71.01435 | 23 ft | 1 kts | 311° |
| 2026-05-07 01:14 | 42.36511 | -71.01442 | 23 ft | 0 kts | 322° |